createdAt,value
2023-02-22T00:04:49.860Z,4.20
2023-02-22T00:09:50.957Z,4.35
2023-02-22T00:14:53.143Z,5.07
2023-02-22T00:19:54.295Z,5.30
2023-02-22T00:24:55.605Z,5.38
2023-02-22T00:29:57.591Z,4.82
2023-02-22T00:35:00.177Z,5.22
2023-02-22T00:40:00.823Z,5.60
2023-02-22T00:45:03.718Z,5.20
2023-02-22T00:50:04.597Z,5.00
2023-02-22T00:55:06.449Z,5.00
2023-02-22T01:00:12.893Z,5.57
2023-02-22T01:05:16.353Z,5.15
2023-02-22T01:10:19.384Z,5.07
2023-02-22T01:15:22.680Z,6.45
2023-02-22T01:20:25.513Z,4.97
2023-02-22T01:25:29.799Z,5.40
2023-02-22T01:30:34.269Z,4.85
2023-02-22T01:35:36.592Z,5.35
2023-02-22T01:40:39.478Z,5.70
2023-02-22T01:45:48.676Z,5.53
2023-02-22T01:50:55.225Z,5.38
2023-02-22T01:55:57.286Z,5.43
2023-02-22T02:00:59.543Z,5.63
2023-02-22T02:06:04.009Z,5.53
2023-02-22T02:11:09.661Z,6.00
2023-02-22T02:16:11.879Z,6.03
2023-02-22T02:21:41.453Z,5.78
2023-02-22T02:27:04.025Z,5.63
2023-02-22T02:32:33.234Z,6.53
2023-02-22T02:37:41.918Z,5.50
2023-02-22T02:42:51.486Z,6.30
2023-02-22T02:47:58.748Z,6.03
2023-02-22T02:53:03.417Z,5.97
2023-02-22T02:58:05.844Z,6.70
2023-02-22T03:03:23.487Z,7.38
2023-02-22T03:08:33.485Z,8.95
2023-02-22T03:13:42.006Z,8.02
2023-02-22T03:18:52.359Z,8.02
2023-02-22T03:24:01.799Z,7.13
2023-02-22T03:29:05.232Z,6.90
2023-02-22T03:34:12.350Z,6.15
2023-02-22T03:39:17.110Z,7.40
2023-02-22T03:44:24.601Z,6.47
2023-02-22T03:49:36.112Z,6.95
2023-02-22T03:54:38.542Z,6.20
2023-02-22T03:59:40.279Z,6.72
2023-02-22T04:04:42.268Z,6.90
2023-02-22T04:09:43.228Z,7.32
2023-02-22T04:14:44.742Z,7.75
2023-02-22T04:19:46.783Z,7.20
2023-02-22T04:24:48.974Z,7.70
2023-02-22T04:29:51.537Z,7.60
2023-02-22T04:34:53.636Z,7.57
2023-02-22T04:39:54.395Z,8.52
2023-02-22T04:44:55.325Z,7.80
2023-02-22T04:49:57.505Z,7.60
2023-02-22T04:54:58.322Z,7.03
2023-02-22T04:59:59.723Z,7.57
2023-02-22T05:05:01.803Z,7.80
2023-02-22T05:10:03.257Z,6.95
2023-02-22T05:15:04.126Z,7.40
2023-02-22T05:20:08.671Z,8.10
2023-02-22T05:25:11.333Z,8.23
2023-02-22T05:30:13.359Z,8.05
2023-02-22T05:35:16.075Z,8.43
2023-02-22T05:40:18.369Z,7.90
2023-02-22T05:45:20.929Z,8.77
2023-02-22T05:50:23.243Z,9.25
2023-02-22T05:55:24.936Z,7.95
2023-02-22T06:00:29.308Z,8.00
2023-02-22T06:05:32.337Z,7.20
2023-02-22T06:10:34.379Z,7.80
2023-02-22T06:15:35.097Z,8.18
2023-02-22T06:20:37.083Z,7.60
2023-02-22T06:25:37.733Z,7.57
2023-02-22T06:30:38.675Z,7.50
2023-02-22T06:35:40.701Z,7.45
2023-02-22T06:40:41.673Z,7.63
2023-02-22T06:45:42.382Z,7.75
2023-02-22T06:50:44.378Z,8.77
2023-02-22T06:55:46.831Z,9.70
2023-02-22T07:00:47.525Z,8.30
2023-02-22T07:05:49.510Z,8.75
2023-02-22T07:10:50.902Z,8.05
2023-02-22T07:15:51.544Z,8.18
2023-02-22T07:20:54.327Z,7.68
2023-02-22T07:25:55.064Z,8.43
2023-02-22T07:30:55.894Z,7.05
2023-02-22T07:35:57.863Z,8.55
2023-02-22T07:40:58.942Z,8.18
2023-02-22T07:46:02.822Z,8.27
2023-02-22T07:51:05.978Z,8.38
2023-02-22T07:56:08.834Z,8.85
2023-02-22T08:01:10.230Z,9.45
2023-02-22T08:06:12.556Z,7.97
2023-02-22T08:11:14.648Z,8.75
2023-02-22T08:16:15.428Z,9.25
2023-02-22T08:21:18.946Z,9.13
2023-02-22T08:26:20.829Z,8.68
2023-02-22T08:31:21.664Z,9.38
2023-02-22T08:36:23.679Z,8.88
2023-02-22T08:41:24.329Z,9.35
2023-02-22T08:46:25.262Z,9.77
2023-02-22T08:51:27.916Z,9.70
2023-02-22T08:56:30.053Z,9.85
2023-02-22T09:01:33.476Z,10.02
2023-02-22T09:06:36.292Z,9.05
2023-02-22T09:11:37.013Z,9.85
2023-02-22T09:16:38.199Z,9.65
2023-02-22T09:21:41.262Z,10.70
2023-02-22T09:26:47.794Z,10.00
2023-02-22T09:31:48.551Z,9.88
2023-02-22T09:36:51.166Z,9.07
2023-02-22T09:41:58.742Z,10.10
2023-02-22T09:46:59.738Z,10.02
2023-02-22T09:52:06.046Z,9.70
2023-02-22T09:57:10.641Z,10.13
2023-02-22T10:02:24.613Z,9.27
2023-02-22T10:07:31.913Z,10.27
2023-02-22T10:12:45.138Z,10.40
2023-02-22T10:17:58.827Z,9.02
2023-02-22T10:23:12.815Z,8.55
2023-02-22T10:28:20.750Z,9.18
2023-02-22T10:33:24.122Z,9.15
2023-02-22T10:38:28.493Z,9.23
2023-02-22T10:43:29.318Z,9.02
2023-02-22T10:48:32.293Z,8.43
2023-02-22T10:53:37.900Z,6.53
2023-02-22T10:58:47.920Z,7.22
2023-02-22T11:03:58.220Z,5.82
2023-02-22T11:09:11.342Z,6.53
2023-02-22T11:14:13.213Z,6.30
2023-02-22T11:19:20.867Z,5.28
2023-02-22T11:24:30.299Z,5.60
2023-02-22T11:29:35.704Z,5.28
2023-02-22T11:34:42.690Z,4.63
2023-02-22T11:39:45.720Z,4.45
2023-02-22T11:44:47.021Z,5.82
2023-02-22T11:49:47.762Z,5.40
2023-02-22T11:55:04.324Z,4.47
2023-02-22T12:00:16.721Z,4.65
2023-02-22T12:05:28.890Z,4.90
2023-02-22T12:10:47.048Z,4.57
2023-02-22T12:15:56.248Z,4.03
2023-02-22T12:21:01.633Z,3.67
2023-02-22T12:26:11.820Z,4.32
2023-02-22T12:31:20.704Z,4.07
2023-02-22T12:36:26.032Z,4.20
2023-02-22T12:41:38.336Z,3.22
2023-02-22T12:46:43.018Z,3.70
2023-02-22T12:51:49.724Z,3.63
2023-02-22T12:56:56.673Z,3.60
2023-02-22T13:02:01.957Z,3.30
2023-02-22T13:07:24.172Z,3.05
2023-02-22T13:12:36.973Z,3.08
2023-02-22T13:17:45.054Z,3.03
2023-02-22T13:22:51.155Z,3.00
2023-02-22T13:28:00.104Z,3.40
2023-02-22T13:33:17.890Z,2.55
2023-02-22T13:38:38.266Z,3.13
2023-02-22T13:43:59.228Z,3.63
2023-02-22T13:49:12.958Z,2.40
2023-02-22T13:54:22.059Z,2.40
2023-02-22T13:59:28.277Z,2.25
2023-02-22T14:04:40.685Z,2.47
2023-02-22T14:09:46.975Z,2.90
2023-02-22T14:15:28.715Z,3.35
2023-02-22T14:20:32.510Z,2.92
2023-02-22T14:25:40.372Z,3.08
2023-02-22T14:30:42.512Z,3.42
2023-02-22T14:35:50.180Z,3.05
2023-02-22T14:40:53.650Z,3.05
2023-02-22T14:46:00.271Z,2.55
2023-02-22T14:51:19.083Z,3.30
2023-02-22T14:56:24.493Z,5.05
2023-02-22T15:01:47.430Z,5.70
2023-02-22T15:06:59.952Z,7.63
2023-02-22T15:12:13.957Z,7.03
2023-02-22T15:17:20.868Z,7.07
2023-02-22T15:22:24.975Z,7.43
2023-02-22T15:27:26.223Z,9.00
2023-02-22T15:32:36.246Z,8.52
2023-02-22T15:37:37.038Z,7.88
2023-02-22T15:42:45.187Z,8.30
2023-02-22T15:47:48.081Z,6.93
2023-02-22T15:52:53.110Z,7.60
2023-02-22T15:57:54.158Z,7.38
2023-02-22T16:02:58.817Z,7.43
2023-02-22T16:07:59.623Z,6.80
2023-02-22T16:13:14.441Z,8.30
2023-02-22T16:18:33.674Z,7.05
2023-02-22T16:23:45.961Z,8.10
2023-02-22T16:28:52.849Z,7.97
2023-02-22T16:33:55.921Z,8.15
2023-02-22T16:38:56.633Z,8.30
2023-02-22T16:43:57.369Z,8.57
2023-02-22T16:49:03.529Z,8.43
2023-02-22T16:54:04.197Z,9.15
2023-02-22T16:59:11.157Z,8.95
2023-02-22T17:04:17.750Z,8.15
2023-02-22T17:09:20.085Z,9.23
2023-02-22T17:14:24.488Z,8.52
2023-02-22T17:19:26.904Z,9.80
2023-02-22T17:24:29.222Z,8.57
2023-02-22T17:29:30.512Z,8.80
2023-02-22T17:34:32.642Z,9.32
2023-02-22T17:39:33.511Z,9.27
2023-02-22T17:44:35.357Z,8.48
2023-02-22T17:49:37.417Z,9.10
2023-02-22T17:54:40.330Z,9.23
2023-02-22T17:59:43.530Z,10.07
2023-02-22T18:04:45.560Z,10.00
2023-02-22T18:09:46.337Z,10.10
2023-02-22T18:14:47.101Z,9.75
2023-02-22T18:19:49.547Z,8.82
2023-02-22T18:24:50.293Z,9.40
2023-02-22T18:29:51.238Z,10.18
2023-02-22T18:34:53.530Z,10.10
2023-02-22T18:39:55.450Z,8.60
2023-02-22T18:45:00.596Z,9.50
2023-02-22T18:50:02.594Z,8.75
2023-02-22T18:55:03.332Z,9.18
2023-02-22T19:00:07.367Z,9.18
2023-02-22T19:05:10.580Z,8.38
2023-02-22T19:10:11.612Z,8.07
2023-02-22T19:15:12.416Z,10.80
2023-02-22T19:20:14.443Z,9.20
2023-02-22T19:25:15.193Z,9.27
2023-02-22T19:30:17.075Z,9.80
2023-02-22T19:35:26.964Z,9.73
2023-02-22T19:40:27.743Z,10.88
2023-02-22T19:45:28.550Z,10.38
2023-02-22T19:50:30.590Z,10.68
2023-02-22T19:55:32.357Z,10.38
2023-02-22T20:00:35.568Z,10.18
2023-02-22T20:05:41.940Z,11.00
2023-02-22T20:10:42.636Z,11.10
2023-02-22T20:15:45.121Z,10.00
2023-02-22T20:20:47.119Z,10.27
2023-02-22T20:25:53.793Z,9.68
2023-02-22T20:30:54.536Z,10.77
2023-02-22T20:35:56.630Z,10.48
2023-02-22T20:40:57.327Z,11.27
2023-02-22T20:46:01.348Z,10.77
2023-02-22T20:51:07.832Z,11.45
2023-02-22T20:56:12.321Z,10.50
2023-02-22T21:01:17.101Z,10.13
2023-02-22T21:06:21.522Z,10.30
2023-02-22T21:11:23.821Z,11.05
2023-02-22T21:16:26.201Z,10.18
2023-02-22T21:21:29.225Z,10.52
2023-02-22T21:26:31.695Z,10.13
2023-02-22T21:31:34.599Z,10.48
2023-02-22T21:36:38.862Z,10.65
2023-02-22T21:41:40.936Z,10.38
2023-02-22T21:46:41.860Z,10.88
2023-02-22T21:51:44.743Z,10.32
2023-02-22T21:56:45.414Z,10.85
2023-02-22T22:01:48.205Z,10.70
2023-02-22T22:06:53.003Z,11.48
2023-02-22T22:11:58.279Z,10.40
2023-02-22T22:17:01.034Z,10.77
2023-02-22T22:22:03.065Z,10.70
2023-02-22T22:27:06.519Z,11.02
2023-02-22T22:32:07.601Z,10.52
2023-02-22T22:37:09.654Z,11.25
2023-02-22T22:42:10.377Z,11.30
2023-02-22T22:47:13.149Z,11.45
2023-02-22T22:52:19.012Z,10.93
2023-02-22T22:57:20.020Z,10.90
2023-02-22T23:02:21.274Z,11.30
2023-02-22T23:07:23.352Z,12.05
2023-02-22T23:12:31.436Z,11.68
2023-02-22T23:17:41.054Z,10.48
2023-02-22T23:22:47.408Z,11.25
2023-02-22T23:27:48.389Z,11.60
2023-02-22T23:32:49.633Z,11.70
2023-02-22T23:37:53.473Z,11.25
2023-02-22T23:42:54.867Z,11.93
2023-02-22T23:47:57.159Z,11.55
2023-02-22T23:53:03.514Z,11.10
2023-02-22T23:58:04.316Z,10.80
